createdAt,value
2022-08-23T00:02:48.476Z,3.30
2022-08-23T00:08:53.775Z,6.80
2022-08-23T00:14:57.406Z,2.53
2022-08-23T00:21:02.152Z,3.03
2022-08-23T00:27:08.424Z,3.17
2022-08-23T00:33:11.855Z,10.25
2022-08-23T00:39:15.981Z,7.20
2022-08-23T00:45:40.796Z,13.23
2022-08-23T00:51:53.222Z,9.82
2022-08-23T00:57:56.992Z,10.95
2022-08-23T01:04:04.669Z,4.68
2022-08-23T01:10:10.843Z,7.65
2022-08-23T01:16:23.856Z,3.53
2022-08-23T01:22:30.632Z,4.28
2022-08-23T01:28:35.401Z,4.68
2022-08-23T01:34:45.395Z,8.50
2022-08-23T01:40:55.097Z,3.38
2022-08-23T01:46:59.821Z,5.32
2022-08-23T01:53:03.501Z,4.97
2022-08-23T01:59:08.096Z,5.95
2022-08-23T02:05:12.883Z,5.72
2022-08-23T02:11:22.684Z,4.43
2022-08-23T02:17:26.072Z,3.92
2022-08-23T02:23:31.062Z,6.22
2022-08-23T02:29:39.174Z,4.05
2022-08-23T02:35:43.164Z,4.30
2022-08-23T02:41:47.953Z,4.70
2022-08-23T02:47:51.418Z,5.60
2022-08-23T02:53:54.832Z,5.03
2022-08-23T02:59:59.588Z,6.72
2022-08-23T03:06:24.694Z,6.70
2022-08-23T03:12:27.160Z,6.00
2022-08-23T03:18:31.967Z,5.72
2022-08-23T03:24:36.208Z,4.65
2022-08-23T03:30:39.606Z,4.82
2022-08-23T03:36:44.496Z,6.82
2022-08-23T03:42:48.228Z,5.95
2022-08-23T03:48:52.370Z,9.27
2022-08-23T03:54:57.440Z,12.98
2022-08-23T04:01:00.862Z,12.27
2022-08-23T04:07:04.208Z,8.43
2022-08-23T04:13:10.546Z,27.35
2022-08-23T04:19:15.019Z,28.58
2022-08-23T04:25:33.697Z,57.42
2022-08-23T04:31:40.169Z,55.20
2022-08-23T04:37:46.496Z,53.17
2022-08-23T04:43:50.614Z,43.03
2022-08-23T04:49:55.336Z,49.60
2022-08-23T04:55:58.688Z,46.45
2022-08-23T05:02:02.140Z,44.83
2022-08-23T05:08:07.014Z,25.48
2022-08-23T05:14:10.854Z,24.08
2022-08-23T05:20:14.336Z,24.08
2022-08-23T05:26:19.742Z,20.98
2022-08-23T05:32:23.814Z,23.90
2022-08-23T05:38:28.284Z,18.08
2022-08-23T05:44:36.197Z,24.38
2022-08-23T05:50:41.114Z,26.02
2022-08-23T05:56:45.271Z,19.50
2022-08-23T06:02:51.820Z,20.42
2022-08-23T06:08:55.336Z,14.00
2022-08-23T06:14:59.298Z,12.15
2022-08-23T06:21:05.419Z,13.48
2022-08-23T06:27:08.856Z,15.40
2022-08-23T06:33:13.902Z,16.25
2022-08-23T06:39:19.639Z,19.17
2022-08-23T06:45:27.011Z,14.18
2022-08-23T06:51:39.346Z,16.10
2022-08-23T06:57:44.122Z,10.05
2022-08-23T07:03:47.577Z,10.45
2022-08-23T07:09:51.076Z,6.28
2022-08-23T07:16:00.311Z,10.23
2022-08-23T07:22:04.757Z,4.25
2022-08-23T07:28:11.631Z,4.78
2022-08-23T07:34:16.648Z,2.67
2022-08-23T07:40:20.759Z,5.45
2022-08-23T07:46:24.327Z,4.32
2022-08-23T07:52:30.340Z,5.00
2022-08-23T07:58:34.141Z,3.45
2022-08-23T08:04:37.638Z,3.53
2022-08-23T08:10:43.955Z,2.22
2022-08-23T08:16:48.594Z,2.92
2022-08-23T08:22:59.049Z,2.10
2022-08-23T08:29:05.164Z,1.98
2022-08-23T08:35:09.136Z,1.75
2022-08-23T08:41:16.549Z,2.63
2022-08-23T08:47:22.433Z,1.10
2022-08-23T08:53:27.636Z,2.63
2022-08-23T08:59:37.764Z,1.40
2022-08-23T09:05:49.891Z,1.25
2022-08-23T09:11:59.973Z,1.90
2022-08-23T09:18:09.477Z,1.58
2022-08-23T09:24:14.522Z,2.90
2022-08-23T09:30:19.309Z,2.63
2022-08-23T09:36:25.350Z,2.63
2022-08-23T09:42:31.505Z,2.55
2022-08-23T09:48:36.412Z,2.70
2022-08-23T09:54:47.264Z,1.73
2022-08-23T10:01:04.227Z,1.08
2022-08-23T10:07:22.287Z,1.63
2022-08-23T10:13:26.079Z,2.53
2022-08-23T10:19:36.254Z,1.30
2022-08-23T10:25:42.085Z,0.80
2022-08-23T10:31:49.836Z,0.90
2022-08-23T10:37:59.639Z,1.33
2022-08-23T10:44:09.030Z,1.20
2022-08-23T10:50:13.962Z,3.35
2022-08-23T10:56:20.910Z,2.72
2022-08-23T11:02:31.444Z,1.40
2022-08-23T11:08:36.788Z,1.80
2022-08-23T11:14:43.297Z,1.15
2022-08-23T11:21:01.544Z,1.42
2022-08-23T11:27:08.737Z,1.20
2022-08-23T11:33:21.277Z,0.90
2022-08-23T11:39:26.942Z,1.15
2022-08-23T11:45:33.358Z,1.38
2022-08-23T11:51:42.968Z,1.88
2022-08-23T11:57:56.236Z,2.28
2022-08-23T12:04:01.839Z,1.60
2022-08-23T12:10:07.324Z,1.38
2022-08-23T12:16:16.956Z,1.73
2022-08-23T12:22:21.814Z,1.30
2022-08-23T12:28:33.430Z,1.65
2022-08-23T12:34:42.299Z,1.13
2022-08-23T12:40:47.614Z,1.00
2022-08-23T12:46:53.199Z,1.85
2022-08-23T12:52:58.496Z,1.55
2022-08-23T12:59:05.017Z,2.47
2022-08-23T13:05:13.580Z,1.05
2022-08-23T13:11:20.212Z,0.70
2022-08-23T13:17:32.848Z,2.90
2022-08-23T13:23:37.720Z,0.80
2022-08-23T13:29:50.339Z,1.00
2022-08-23T13:35:55.037Z,1.27
2022-08-23T13:42:00.352Z,1.02
2022-08-23T13:48:04.816Z,1.10
2022-08-23T13:54:10.701Z,0.95
2022-08-23T14:00:19.500Z,1.95
2022-08-23T14:06:23.995Z,0.68
2022-08-23T14:12:29.104Z,0.50
2022-08-23T14:18:35.085Z,2.88
2022-08-23T14:24:40.034Z,0.73
2022-08-23T14:30:43.584Z,0.85
2022-08-23T14:43:13.020Z,1.77
2022-08-23T14:49:16.486Z,13.38
2022-08-23T14:55:24.868Z,2.25
2022-08-23T15:01:29.016Z,5.07
2022-08-23T15:07:32.540Z,2.13
2022-08-23T15:13:53.629Z,1.67
2022-08-23T15:19:59.521Z,1.40
2022-08-23T15:26:03.107Z,2.03
2022-08-23T15:32:08.720Z,0.82
2022-08-23T15:38:14.860Z,1.25
2022-08-23T15:44:18.257Z,1.02
2022-08-23T15:50:24.121Z,1.23
2022-08-23T15:56:30.646Z,0.40
2022-08-23T16:02:57.279Z,0.40
2022-08-23T16:08:59.364Z,0.55
2022-08-23T16:15:02.879Z,0.30
2022-08-23T16:21:06.431Z,1.25
2022-08-23T16:27:11.458Z,1.65
2022-08-23T16:33:14.937Z,1.30
2022-08-23T16:39:19.003Z,2.33
2022-08-23T16:45:25.831Z,2.50
2022-08-23T16:51:30.237Z,2.15
2022-08-23T16:57:33.673Z,1.70
2022-08-23T17:03:38.430Z,2.08
2022-08-23T17:09:42.159Z,1.33
2022-08-23T17:15:45.793Z,1.05
2022-08-23T17:21:50.864Z,1.63
2022-08-23T17:27:55.447Z,1.42
2022-08-23T17:34:03.249Z,1.60
2022-08-23T17:40:10.645Z,2.75
2022-08-23T17:46:16.673Z,1.33
2022-08-23T17:52:20.157Z,1.30
2022-08-23T17:58:25.330Z,0.88
2022-08-23T18:04:31.825Z,1.65
2022-08-23T18:10:35.505Z,1.88
2022-08-23T18:16:40.452Z,2.10
2022-08-23T18:22:47.606Z,1.25
2022-08-23T18:28:51.117Z,1.55
2022-08-23T18:34:56.000Z,0.80
2022-08-23T18:40:59.615Z,0.55
2022-08-23T18:47:03.717Z,0.98
2022-08-23T18:53:09.019Z,1.70
2022-08-23T18:59:13.099Z,3.10
2022-08-23T19:05:16.559Z,3.85
2022-08-23T19:11:22.427Z,1.83
2022-08-23T19:17:26.798Z,2.25
2022-08-23T19:23:30.312Z,2.53
2022-08-23T19:29:36.191Z,4.80
2022-08-23T19:35:40.501Z,2.45
2022-08-23T19:41:43.996Z,4.05
2022-08-23T19:47:48.854Z,2.90
2022-08-23T19:54:11.027Z,4.93
2022-08-23T20:00:19.670Z,3.58
2022-08-23T20:06:24.643Z,3.95
2022-08-23T20:12:29.107Z,8.07
2022-08-23T20:18:32.686Z,3.63
2022-08-23T20:24:51.564Z,3.25
2022-08-23T20:30:55.797Z,5.50
2022-08-23T20:36:59.581Z,2.60
2022-08-23T20:43:05.972Z,6.18
2022-08-23T20:49:10.040Z,3.58
2022-08-23T20:55:13.700Z,4.22
2022-08-23T21:01:18.578Z,3.30
2022-08-23T21:07:22.151Z,4.70
2022-08-23T21:13:25.633Z,2.17
2022-08-23T21:19:31.432Z,3.75
2022-08-23T21:25:34.795Z,3.83
2022-08-23T21:31:38.528Z,2.58
2022-08-23T21:37:43.345Z,4.40
2022-08-23T21:43:46.850Z,2.83
2022-08-23T21:49:50.296Z,3.50
2022-08-23T21:55:55.122Z,2.28
2022-08-23T22:01:58.529Z,2.67
2022-08-23T22:08:02.123Z,3.08
2022-08-23T22:14:06.829Z,2.88
2022-08-23T22:20:11.207Z,4.50
2022-08-23T22:26:15.270Z,3.33
2022-08-23T22:32:20.042Z,3.30
2022-08-23T22:38:23.494Z,2.85
2022-08-23T22:44:27.006Z,3.45
2022-08-23T22:50:31.943Z,2.50
2022-08-23T22:56:38.015Z,2.78
2022-08-23T23:02:41.579Z,5.20
2022-08-23T23:08:47.118Z,3.05
2022-08-23T23:14:50.547Z,2.42
2022-08-23T23:20:55.211Z,3.20
2022-08-23T23:27:00.053Z,3.10
2022-08-23T23:33:03.635Z,3.67
2022-08-23T23:39:07.599Z,2.60
2022-08-23T23:45:13.068Z,3.15
2022-08-23T23:51:19.931Z,4.55
2022-08-23T23:57:24.021Z,3.55
